Aviation Digital Data Service (ADDS)

Output produced by METARs form (1133 UTC 19 February 2019)
found at http://www.aviationweather.gov/metar/data/
 
METAR text: HESH 191100Z 04005KT 9999 FEW025 20/06 Q1021 NOSIG
Conditions at: HESH (SHARM EL SHEIKHI, EG) observed 1100 UTC 19 February 2019
Temperature: 20.0°C (68°F)
Dewpoint: 6.0°C (43°F) [RH = 40%]
Pressure (altimeter): 30.15 inches Hg (1021.0 mb)
Winds: from the NE (40 degrees) at 6 MPH (5 knots; 2.6 m/s)
Visibility: 6 or more miles (10+ km)
Ceiling: at least 12,000 feet AGL
Clouds: few clouds at 2500 feet AGL
Weather: no significant weather observed at this time

METAR text: HESH 191000Z 05009KT 9999 FEW025 19/06 Q1022 NOSIG
Conditions at: HESH (SHARM EL SHEIKHI, EG) observed 1000 UTC 19 February 2019
Temperature: 19.0°C (66°F)
Dewpoint: 6.0°C (43°F) [RH = 43%]
Pressure (altimeter): 30.18 inches Hg (1022.0 mb)
Winds: from the NE (50 degrees) at 10 MPH (9 knots; 4.6 m/s)
Visibility: 6 or more miles (10+ km)
Ceiling: at least 12,000 feet AGL
Clouds: few clouds at 2500 feet AGL
Weather: no significant weather observed at this time

METAR text: HESH 190900Z 03010KT 9999 FEW025 18/06 Q1022 NOSIG
Conditions at: HESH (SHARM EL SHEIKHI, EG) observed 0900 UTC 19 February 2019
Temperature: 18.0°C (64°F)
Dewpoint: 6.0°C (43°F) [RH = 45%]
Pressure (altimeter): 30.18 inches Hg (1022.0 mb)
Winds: from the NNE (30 degrees) at 12 MPH (10 knots; 5.1 m/s)
Visibility: 6 or more miles (10+ km)
Ceiling: at least 12,000 feet AGL
Clouds: few clouds at 2500 feet AGL
Weather: no significant weather observed at this time

METAR text: HESH 190800Z 01014KT 9999 FEW025 18/04 Q1023 NOSIG
Conditions at: HESH (SHARM EL SHEIKHI, EG) observed 0800 UTC 19 February 2019
Temperature: 18.0°C (64°F)
Dewpoint: 4.0°C (39°F) [RH = 39%]
Pressure (altimeter): 30.21 inches Hg (1023.0 mb)
Winds: from the N (10 degrees) at 16 MPH (14 knots; 7.2 m/s)
Visibility: 6 or more miles (10+ km)
Ceiling: at least 12,000 feet AGL
Clouds: few clouds at 2500 feet AGL
Weather: no significant weather observed at this time

METAR text: HESH 190700Z 36014KT 9999 FEW025 17/03 Q1022 NOSIG
Conditions at: HESH (SHARM EL SHEIKHI, EG) observed 0700 UTC 19 February 2019
Temperature: 17.0°C (63°F)
Dewpoint: 3.0°C (37°F) [RH = 39%]
Pressure (altimeter): 30.18 inches Hg (1022.0 mb)
Winds: from the N (360 degrees) at 16 MPH (14 knots; 7.2 m/s)
Visibility: 6 or more miles (10+ km)
Ceiling: at least 12,000 feet AGL
Clouds: few clouds at 2500 feet AGL
Weather: no significant weather observed at this time

METAR text: HESH 190600Z 01011KT 9999 FEW025 15/04 Q1022 NOSIG
Conditions at: HESH (SHARM EL SHEIKHI, EG) observed 0600 UTC 19 February 2019
Temperature: 15.0°C (59°F)
Dewpoint: 4.0°C (39°F) [RH = 48%]
Pressure (altimeter): 30.18 inches Hg (1022.0 mb)
Winds: from the N (10 degrees) at 13 MPH (11 knots; 5.7 m/s)
Visibility: 6 or more miles (10+ km)
Ceiling: at least 12,000 feet AGL
Clouds: few clouds at 2500 feet AGL
Weather: no significant weather observed at this time

METAR text: HESH 190500Z 36010KT 9999 FEW025 13/02 Q1021 NOSIG
Conditions at: HESH (SHARM EL SHEIKHI, EG) observed 0500 UTC 19 February 2019
Temperature: 13.0°C (55°F)
Dewpoint: 2.0°C (36°F) [RH = 47%]
Pressure (altimeter): 30.15 inches Hg (1021.0 mb)
Winds: from the N (360 degrees) at 12 MPH (10 knots; 5.1 m/s)
Visibility: 6 or more miles (10+ km)
Ceiling: at least 12,000 feet AGL
Clouds: few clouds at 2500 feet AGL
Weather: no significant weather observed at this time

METAR text: HESH 190400Z 01005KT 9999 FEW025 13/04 Q1020 NOSIG
Conditions at: HESH (SHARM EL SHEIKHI, EG) observed 0400 UTC 19 February 2019
Temperature: 13.0°C (55°F)
Dewpoint: 4.0°C (39°F) [RH = 54%]
Pressure (altimeter): 30.12 inches Hg (1020.0 mb)
Winds: from the N (10 degrees) at 6 MPH (5 knots; 2.6 m/s)
Visibility: 6 or more miles (10+ km)
Ceiling: at least 12,000 feet AGL
Clouds: few clouds at 2500 feet AGL
Weather: no significant weather observed at this time

METAR text: HESH 190300Z 33009KT CAVOK 14/03 Q1020 NOSIG
Conditions at: HESH (SHARM EL SHEIKHI, EG) observed 0300 UTC 19 February 2019
Temperature: 14.0°C (57°F)
Dewpoint: 3.0°C (37°F) [RH = 47%]
Pressure (altimeter): 30.12 inches Hg (1020.0 mb)
Winds: from the NNW (330 degrees) at 10 MPH (9 knots; 4.6 m/s)
Visibility: 6 or more miles (10+ km)
Ceiling: ceiling and visibility are OK
Clouds: unknown
Weather: no significant weather observed at this time

METAR text: HESH 190200Z 36008KT CAVOK 14/04 Q1019 NOSIG
Conditions at: HESH (SHARM EL SHEIKHI, EG) observed 0200 UTC 19 February 2019
Temperature: 14.0°C (57°F)
Dewpoint: 4.0°C (39°F) [RH = 51%]
Pressure (altimeter): 30.09 inches Hg (1019.0 mb)
Winds: from the N (360 degrees) at 9 MPH (8 knots; 4.1 m/s)
Visibility: 6 or more miles (10+ km)
Ceiling: ceiling and visibility are OK
Clouds: unknown
Weather: no significant weather observed at this time

METAR text: HESH 190100Z 36009KT CAVOK 14/04 Q1019 NOSIG
Conditions at: HESH (SHARM EL SHEIKHI, EG) observed 0100 UTC 19 February 2019
Temperature: 14.0°C (57°F)
Dewpoint: 4.0°C (39°F) [RH = 51%]
Pressure (altimeter): 30.09 inches Hg (1019.0 mb)
Winds: from the N (360 degrees) at 10 MPH (9 knots; 4.6 m/s)
Visibility: 6 or more miles (10+ km)
Ceiling: ceiling and visibility are OK
Clouds: unknown
Weather: no significant weather observed at this time

METAR text: HESH 190000Z 36012KT 9999 FEW025 14/05 Q1019 NOSIG
Conditions at: HESH (SHARM EL SHEIKHI, EG) observed 0000 UTC 19 February 2019
Temperature: 14.0°C (57°F)
Dewpoint: 5.0°C (41°F) [RH = 55%]
Pressure (altimeter): 30.09 inches Hg (1019.0 mb)
Winds: from the N (360 degrees) at 14 MPH (12 knots; 6.2 m/s)
Visibility: 6 or more miles (10+ km)
Ceiling: at least 12,000 feet AGL
Clouds: few clouds at 2500 feet AGL
Weather: no significant weather observed at this time

METAR text: HESH 182300Z 36010KT 9999 SCT025 15/04 Q1019 NOSIG
Conditions at: HESH (SHARM EL SHEIKHI, EG) observed 2300 UTC 18 February 2019
Temperature: 15.0°C (59°F)
Dewpoint: 4.0°C (39°F) [RH = 48%]
Pressure (altimeter): 30.09 inches Hg (1019.0 mb)
Winds: from the N (360 degrees) at 12 MPH (10 knots; 5.1 m/s)
Visibility: 6 or more miles (10+ km)
Ceiling: at least 12,000 feet AGL
Clouds: scattered clouds at 2500 feet AGL
Weather: no significant weather observed at this time

METAR text: HESH 182200Z 36009KT 9999 SCT025 15/03 Q1019 NOSIG
Conditions at: HESH (SHARM EL SHEIKHI, EG) observed 2200 UTC 18 February 2019
Temperature: 15.0°C (59°F)
Dewpoint: 3.0°C (37°F) [RH = 44%]
Pressure (altimeter): 30.09 inches Hg (1019.0 mb)
Winds: from the N (360 degrees) at 10 MPH (9 knots; 4.6 m/s)
Visibility: 6 or more miles (10+ km)
Ceiling: at least 12,000 feet AGL
Clouds: scattered clouds at 2500 feet AGL
Weather: no significant weather observed at this time

METAR text: HESH 182100Z 36010KT 9999 SCT025 16/00 Q1019 NOSIG
Conditions at: HESH (SHARM EL SHEIKHI, EG) observed 2100 UTC 18 February 2019
Temperature: 16.0°C (61°F)
Dewpoint: 0.0°C (32°F) [RH = 34%]
Pressure (altimeter): 30.09 inches Hg (1019.0 mb)
Winds: from the N (360 degrees) at 12 MPH (10 knots; 5.1 m/s)
Visibility: 6 or more miles (10+ km)
Ceiling: at least 12,000 feet AGL
Clouds: scattered clouds at 2500 feet AGL
Weather: no significant weather observed at this time

METAR text: HESH 182000Z 35004KT 9999 SCT025 16/00 Q1018 NOSIG
Conditions at: HESH (SHARM EL SHEIKHI, EG) observed 2000 UTC 18 February 2019
Temperature: 16.0°C (61°F)
Dewpoint: 0.0°C (32°F) [RH = 34%]
Pressure (altimeter): 30.06 inches Hg (1018.0 mb)
Winds: from the N (350 degrees) at 5 MPH (4 knots; 2.1 m/s)
Visibility: 6 or more miles (10+ km)
Ceiling: at least 12,000 feet AGL
Clouds: scattered clouds at 2500 feet AGL
Weather: no significant weather observed at this time

METAR text: HESH 181900Z 31003KT 9999 SCT025 16/01 Q1018 NOSIG
Conditions at: HESH (SHARM EL SHEIKHI, EG) observed 1900 UTC 18 February 2019
Temperature: 16.0°C (61°F)
Dewpoint: 1.0°C (34°F) [RH = 36%]
Pressure (altimeter): 30.06 inches Hg (1018.0 mb)
Winds: from the NW (310 degrees) at 3 MPH (3 knots; 1.5 m/s)
Visibility: 6 or more miles (10+ km)
Ceiling: at least 12,000 feet AGL
Clouds: scattered clouds at 2500 feet AGL
Weather: no significant weather observed at this time

METAR text: HESH 181800Z 06003KT 9999 SCT025 18/04 Q1017 NOSIG
Conditions at: HESH (SHARM EL SHEIKHI, EG) observed 1800 UTC 18 February 2019
Temperature: 18.0°C (64°F)
Dewpoint: 4.0°C (39°F) [RH = 39%]
Pressure (altimeter): 30.03 inches Hg (1017.0 mb)
Winds: from the ENE (60 degrees) at 3 MPH (3 knots; 1.5 m/s)
Visibility: 6 or more miles (10+ km)
Ceiling: at least 12,000 feet AGL
Clouds: scattered clouds at 2500 feet AGL
Weather: no significant weather observed at this time

METAR text: HESH 181700Z 04004KT 9999 SCT025 18/05 Q1017 NOSIG
Conditions at: HESH (SHARM EL SHEIKHI, EG) observed 1700 UTC 18 February 2019
Temperature: 18.0°C (64°F)
Dewpoint: 5.0°C (41°F) [RH = 42%]
Pressure (altimeter): 30.03 inches Hg (1017.0 mb)
Winds: from the NE (40 degrees) at 5 MPH (4 knots; 2.1 m/s)
Visibility: 6 or more miles (10+ km)
Ceiling: at least 12,000 feet AGL
Clouds: scattered clouds at 2500 feet AGL
Weather: no significant weather observed at this time

METAR text: HESH 181600Z 04005KT 9999 SCT025 18/03 Q1016 NOSIG
Conditions at: HESH (SHARM EL SHEIKHI, EG) observed 1600 UTC 18 February 2019
Temperature: 18.0°C (64°F)
Dewpoint: 3.0°C (37°F) [RH = 37%]
Pressure (altimeter): 30.00 inches Hg (1016.0 mb)
Winds: from the NE (40 degrees) at 6 MPH (5 knots; 2.6 m/s)
Visibility: 6 or more miles (10+ km)
Ceiling: at least 12,000 feet AGL
Clouds: scattered clouds at 2500 feet AGL
Weather: no significant weather observed at this time

METAR text: HESH 181500Z 02006KT 9999 SCT025 19/02 Q1016 NOSIG
Conditions at: HESH (SHARM EL SHEIKHI, EG) observed 1500 UTC 18 February 2019
Temperature: 19.0°C (66°F)
Dewpoint: 2.0°C (36°F) [RH = 32%]
Pressure (altimeter): 30.00 inches Hg (1016.0 mb)
Winds: from the NNE (20 degrees) at 7 MPH (6 knots; 3.1 m/s)
Visibility: 6 or more miles (10+ km)
Ceiling: at least 12,000 feet AGL
Clouds: scattered clouds at 2500 feet AGL
Weather: no significant weather observed at this time

METAR text: HESH 181400Z 03006KT 9999 SCT025 19/03 Q1016 NOSIG
Conditions at: HESH (SHARM EL SHEIKHI, EG) observed 1400 UTC 18 February 2019
Temperature: 19.0°C (66°F)
Dewpoint: 3.0°C (37°F) [RH = 34%]
Pressure (altimeter): 30.00 inches Hg (1016.0 mb)
Winds: from the NNE (30 degrees) at 7 MPH (6 knots; 3.1 m/s)
Visibility: 6 or more miles (10+ km)
Ceiling: at least 12,000 feet AGL
Clouds: scattered clouds at 2500 feet AGL
Weather: no significant weather observed at this time

METAR text: HESH 181300Z 03004KT 9999 FEW025 20/03 Q1016 NOSIG
Conditions at: HESH (SHARM EL SHEIKHI, EG) observed 1300 UTC 18 February 2019
Temperature: 20.0°C (68°F)
Dewpoint: 3.0°C (37°F) [RH = 32%]
Pressure (altimeter): 30.00 inches Hg (1016.0 mb)
Winds: from the NNE (30 degrees) at 5 MPH (4 knots; 2.1 m/s)
Visibility: 6 or more miles (10+ km)
Ceiling: at least 12,000 feet AGL
Clouds: few clouds at 2500 feet AGL
Weather: no significant weather observed at this time

METAR text: HESH 181200Z 07004KT 9999 FEW025 20/03 Q1016 NOSIG
Conditions at: HESH (SHARM EL SHEIKHI, EG) observed 1200 UTC 18 February 2019
Temperature: 20.0°C (68°F)
Dewpoint: 3.0°C (37°F) [RH = 32%]
Pressure (altimeter): 30.00 inches Hg (1016.0 mb)
Winds: from the ENE (70 degrees) at 5 MPH (4 knots; 2.1 m/s)
Visibility: 6 or more miles (10+ km)
Ceiling: at least 12,000 feet AGL
Clouds: few clouds at 2500 feet AGL
Weather: no significant weather observed at this time

METAR text: HESH 181100Z 02005KT 9999 SCT020 20/03 Q1017 NOSIG
Conditions at: HESH (SHARM EL SHEIKHI, EG) observed 1100 UTC 18 February 2019
Temperature: 20.0°C (68°F)
Dewpoint: 3.0°C (37°F) [RH = 32%]
Pressure (altimeter): 30.03 inches Hg (1017.0 mb)
Winds: from the NNE (20 degrees) at 6 MPH (5 knots; 2.6 m/s)
Visibility: 6 or more miles (10+ km)
Ceiling: at least 12,000 feet AGL
Clouds: scattered clouds at 2000 feet AGL
Weather: no significant weather observed at this time

METAR text: HESH 181000Z 05007KT 9999 SCT025 20/03 Q1017 NOSIG
Conditions at: HESH (SHARM EL SHEIKHI, EG) observed 1000 UTC 18 February 2019
Temperature: 20.0°C (68°F)
Dewpoint: 3.0°C (37°F) [RH = 32%]
Pressure (altimeter): 30.03 inches Hg (1017.0 mb)
Winds: from the NE (50 degrees) at 8 MPH (7 knots; 3.6 m/s)
Visibility: 6 or more miles (10+ km)
Ceiling: at least 12,000 feet AGL
Clouds: scattered clouds at 2500 feet AGL
Weather: no significant weather observed at this time

METAR text: HESH 180900Z 07005KT 9999 SCT025 21/03 Q1018 NOSIG
Conditions at: HESH (SHARM EL SHEIKHI, EG) observed 0900 UTC 18 February 2019
Temperature: 21.0°C (70°F)
Dewpoint: 3.0°C (37°F) [RH = 30%]
Pressure (altimeter): 30.06 inches Hg (1018.0 mb)
Winds: from the ENE (70 degrees) at 6 MPH (5 knots; 2.6 m/s)
Visibility: 6 or more miles (10+ km)
Ceiling: at least 12,000 feet AGL
Clouds: scattered clouds at 2500 feet AGL
Weather: no significant weather observed at this time

METAR text: HESH 180800Z 04004KT 9999 SCT025 19/02 Q1019 NOSIG
Conditions at: HESH (SHARM EL SHEIKHI, EG) observed 0800 UTC 18 February 2019
Temperature: 19.0°C (66°F)
Dewpoint: 2.0°C (36°F) [RH = 32%]
Pressure (altimeter): 30.09 inches Hg (1019.0 mb)
Winds: from the NE (40 degrees) at 5 MPH (4 knots; 2.1 m/s)
Visibility: 6 or more miles (10+ km)
Ceiling: at least 12,000 feet AGL
Clouds: scattered clouds at 2500 feet AGL
Weather: no significant weather observed at this time

METAR text: HESH 180700Z 00000KT 9999 SCT025 19/M03 Q1019 NOSIG
Conditions at: HESH (SHARM EL SHEIKHI, EG) observed 0700 UTC 18 February 2019
Temperature: 19.0°C (66°F)
Dewpoint: -3.0°C (27°F) [RH = 22%]
Pressure (altimeter): 30.09 inches Hg (1019.0 mb)
Winds: calm
Visibility: 6 or more miles (10+ km)
Ceiling: at least 12,000 feet AGL
Clouds: scattered clouds at 2500 feet AGL
Weather: no significant weather observed at this time

METAR text: HESH 180600Z 01002KT 9999 FEW025 17/M03 Q1018 NOSIG
Conditions at: HESH (SHARM EL SHEIKHI, EG) observed 0600 UTC 18 February 2019
Temperature: 17.0°C (63°F)
Dewpoint: -3.0°C (27°F) [RH = 25%]
Pressure (altimeter): 30.06 inches Hg (1018.0 mb)
Winds: from the N (10 degrees) at 2 MPH (2 knots; 1.0 m/s)
Visibility: 6 or more miles (10+ km)
Ceiling: at least 12,000 feet AGL
Clouds: few clouds at 2500 feet AGL
Weather: no significant weather observed at this time

METAR text: HESH 180500Z 35003KT 9999 FEW025 15/M02 Q1018 NOSIG
Conditions at: HESH (SHARM EL SHEIKHI, EG) observed 0500 UTC 18 February 2019
Temperature: 15.0°C (59°F)
Dewpoint: -2.0°C (28°F) [RH = 31%]
Pressure (altimeter): 30.06 inches Hg (1018.0 mb)
Winds: from the N (350 degrees) at 3 MPH (3 knots; 1.5 m/s)
Visibility: 6 or more miles (10+ km)
Ceiling: at least 12,000 feet AGL
Clouds: few clouds at 2500 feet AGL
Weather: no significant weather observed at this time

METAR text: HESH 180400Z 30005KT CAVOK 15/M02 Q1016 NOSIG
Conditions at: HESH (SHARM EL SHEIKHI, EG) observed 0400 UTC 18 February 2019
Temperature: 15.0°C (59°F)
Dewpoint: -2.0°C (28°F) [RH = 31%]
Pressure (altimeter): 30.00 inches Hg (1016.0 mb)
Winds: from the WNW (300 degrees) at 6 MPH (5 knots; 2.6 m/s)
Visibility: 6 or more miles (10+ km)
Ceiling: ceiling and visibility are OK
Clouds: unknown
Weather: no significant weather observed at this time

METAR text: HESH 180300Z 29004KT CAVOK 16/M02 Q1016 NOSIG
Conditions at: HESH (SHARM EL SHEIKHI, EG) observed 0300 UTC 18 February 2019
Temperature: 16.0°C (61°F)
Dewpoint: -2.0°C (28°F) [RH = 29%]
Pressure (altimeter): 30.00 inches Hg (1016.0 mb)
Winds: from the WNW (290 degrees) at 5 MPH (4 knots; 2.1 m/s)
Visibility: 6 or more miles (10+ km)
Ceiling: ceiling and visibility are OK
Clouds: unknown
Weather: no significant weather observed at this time

METAR text: HESH 180200Z 29005KT CAVOK 15/M01 Q1017 NOSIG
Conditions at: HESH (SHARM EL SHEIKHI, EG) observed 0200 UTC 18 February 2019
Temperature: 15.0°C (59°F)
Dewpoint: -1.0°C (30°F) [RH = 33%]
Pressure (altimeter): 30.03 inches Hg (1017.0 mb)
Winds: from the WNW (290 degrees) at 6 MPH (5 knots; 2.6 m/s)
Visibility: 6 or more miles (10+ km)
Ceiling: ceiling and visibility are OK
Clouds: unknown
Weather: no significant weather observed at this time

METAR text: HESH 180100Z 28004KT CAVOK 16/M02 Q1017 NOSIG
Conditions at: HESH (SHARM EL SHEIKHI, EG) observed 0100 UTC 18 February 2019
Temperature: 16.0°C (61°F)
Dewpoint: -2.0°C (28°F) [RH = 29%]
Pressure (altimeter): 30.03 inches Hg (1017.0 mb)
Winds: from the W (280 degrees) at 5 MPH (4 knots; 2.1 m/s)
Visibility: 6 or more miles (10+ km)
Ceiling: ceiling and visibility are OK
Clouds: unknown
Weather: no significant weather observed at this time

METAR text: HESH 180000Z 27003KT CAVOK 15/M03 Q1017 NOSIG
Conditions at: HESH (SHARM EL SHEIKHI, EG) observed 0000 UTC 18 February 2019
Temperature: 15.0°C (59°F)
Dewpoint: -3.0°C (27°F) [RH = 29%]
Pressure (altimeter): 30.03 inches Hg (1017.0 mb)
Winds: from the W (270 degrees) at 3 MPH (3 knots; 1.5 m/s)
Visibility: 6 or more miles (10+ km)
Ceiling: ceiling and visibility are OK
Clouds: unknown
Weather: no significant weather observed at this time

Forecast for: HESH (SHARM EL SHEIKHI, EG)
Text: TAF HESH 191100Z 1912/2018 03008G18KT 9999 SCT025
Forecast period: 1200 UTC 19 February 2019 to 1800 UTC 20 February 2019
Forecast type: FROM: standard forecast or significant change
Winds: from the NNE (30 degrees) at 9 MPH (8 knots; 4.1 m/s)
gusting to 21 MPH (18 knots; 9.3 m/s)
Visibility: 6 or more miles 10+ km)
Ceiling: at least 12,000 feet AGL
Clouds: scattered clouds at 2500 feet AGL
Weather: no significant weather forecast for this period